createdAt,value
2018-09-09T00:02:07.171Z,17.10
2018-09-09T00:04:40.732Z,17.00
2018-09-09T00:07:13.258Z,16.90
2018-09-09T00:09:50.449Z,16.90
2018-09-09T00:12:23.974Z,16.80
2018-09-09T00:14:57.232Z,16.80
2018-09-09T00:17:29.623Z,16.80
2018-09-09T00:20:02.881Z,16.80
2018-09-09T00:22:35.322Z,16.80
2018-09-09T00:25:08.176Z,16.80
2018-09-09T00:27:40.746Z,16.70
2018-09-09T00:30:13.506Z,16.70
2018-09-09T00:32:46.424Z,16.70
2018-09-09T00:35:18.969Z,16.70
2018-09-09T00:37:51.818Z,16.80
2018-09-09T00:40:24.920Z,16.90
2018-09-09T00:42:57.473Z,16.90
2018-09-09T00:45:30.295Z,16.80
2018-09-09T00:48:04.765Z,16.80
2018-09-09T00:50:42.934Z,16.80
2018-09-09T00:53:21.575Z,16.90
2018-09-09T00:55:55.579Z,16.80
2018-09-09T00:58:28.410Z,16.70
2018-09-09T01:01:12.972Z,16.60
2018-09-09T01:03:46.910Z,16.70
2018-09-09T01:06:19.379Z,16.60
2018-09-09T01:08:52.197Z,16.70
2018-09-09T01:11:25.893Z,16.70
2018-09-09T01:13:58.303Z,16.80
2018-09-09T01:16:30.774Z,16.70
2018-09-09T01:19:03.486Z,16.70
2018-09-09T01:21:36.314Z,16.70
2018-09-09T01:24:08.737Z,16.70
2018-09-09T01:26:41.130Z,16.70
2018-09-09T01:29:13.678Z,16.70
2018-09-09T01:31:46.459Z,16.80
2018-09-09T01:34:20.175Z,16.80
2018-09-09T01:36:52.870Z,16.90
2018-09-09T01:39:25.302Z,16.90
2018-09-09T01:41:58.169Z,16.80
2018-09-09T01:44:30.564Z,16.90
2018-09-09T01:47:03.262Z,17.00
2018-09-09T01:49:35.977Z,16.90
2018-09-09T01:52:08.464Z,16.90
2018-09-09T01:54:41.686Z,16.90
2018-09-09T01:57:14.245Z,16.90
2018-09-09T01:59:46.770Z,16.80
2018-09-09T02:02:19.781Z,17.00
2018-09-09T02:04:52.777Z,17.10
2018-09-09T02:07:25.469Z,17.00
2018-09-09T02:09:57.850Z,17.00
2018-09-09T02:12:30.251Z,17.10
2018-09-09T02:15:03.740Z,17.10
2018-09-09T02:17:36.129Z,17.10
2018-09-09T02:20:08.875Z,17.10
2018-09-09T02:22:41.551Z,17.30
2018-09-09T02:25:14.050Z,17.20
2018-09-09T02:27:46.634Z,17.10
2018-09-09T02:30:18.993Z,17.00
2018-09-09T02:32:51.359Z,16.90
2018-09-09T02:35:23.822Z,16.90
2018-09-09T02:37:56.213Z,16.90
2018-09-09T02:40:28.579Z,16.80
2018-09-09T02:43:01.264Z,16.80
2018-09-09T02:45:33.666Z,16.70
2018-09-09T02:48:06.172Z,16.90
2018-09-09T02:50:38.755Z,16.90
2018-09-09T02:53:11.160Z,16.80
2018-09-09T02:55:45.372Z,16.90
2018-09-09T02:58:17.728Z,16.90
2018-09-09T03:00:50.141Z,16.80
2018-09-09T03:03:22.578Z,16.80
2018-09-09T03:05:54.936Z,16.80
2018-09-09T03:08:27.481Z,16.80
2018-09-09T03:11:05.592Z,16.80
2018-09-09T03:13:37.998Z,16.80
2018-09-09T03:16:10.661Z,16.80
2018-09-09T03:18:43.327Z,16.60
2018-09-09T03:21:15.803Z,16.60
2018-09-09T03:23:48.372Z,16.70
2018-09-09T03:26:20.748Z,16.70
2018-09-09T03:28:53.167Z,16.70
2018-09-09T03:31:25.563Z,16.70
2018-09-09T03:33:57.968Z,16.60
2018-09-09T03:36:31.675Z,16.50
2018-09-09T03:39:06.182Z,16.50
2018-09-09T03:41:38.558Z,16.50
2018-09-09T03:44:10.951Z,16.40
2018-09-09T03:46:43.324Z,16.40
2018-09-09T03:49:15.710Z,16.40
2018-09-09T03:51:48.298Z,16.50
2018-09-09T03:54:20.729Z,16.40
2018-09-09T03:56:54.022Z,16.40
2018-09-09T03:59:26.377Z,16.50
2018-09-09T04:01:58.761Z,16.60
2018-09-09T04:04:31.138Z,16.50
2018-09-09T04:07:03.578Z,16.50
2018-09-09T04:09:36.596Z,16.50
2018-09-09T04:12:09.034Z,16.40
2018-09-09T04:14:41.409Z,16.40
2018-09-09T04:17:14.090Z,16.40
2018-09-09T04:19:46.725Z,16.40
2018-09-09T04:22:19.174Z,16.40
2018-09-09T04:24:51.543Z,16.40
2018-09-09T04:27:24.363Z,16.40
2018-09-09T04:29:56.791Z,16.40
2018-09-09T04:32:29.365Z,16.40
2018-09-09T04:35:01.813Z,16.50
2018-09-09T04:37:34.301Z,16.40
2018-09-09T04:40:07.049Z,16.40
2018-09-09T04:42:39.467Z,16.30
2018-09-09T04:45:11.822Z,16.30
2018-09-09T04:47:44.189Z,16.50
2018-09-09T04:50:16.572Z,16.50
2018-09-09T04:52:48.946Z,16.60
2018-09-09T04:55:21.409Z,16.50
2018-09-09T04:57:54.256Z,16.40
2018-09-09T05:00:26.896Z,16.50
2018-09-09T05:02:59.681Z,16.60
2018-09-09T05:05:32.345Z,16.70
2018-09-09T05:08:05.174Z,16.80
2018-09-09T05:10:37.674Z,16.90
2018-09-09T05:13:10.154Z,16.90
2018-09-09T05:15:42.560Z,17.00
2018-09-09T05:18:15.705Z,17.00
2018-09-09T05:20:48.073Z,16.90
2018-09-09T05:23:20.520Z,16.90
2018-09-09T05:25:52.897Z,16.90
2018-09-09T05:28:25.512Z,16.90
2018-09-09T05:30:57.871Z,16.90
2018-09-09T05:33:30.592Z,16.80
2018-09-09T05:36:02.939Z,16.80
2018-09-09T05:38:35.644Z,16.80
2018-09-09T05:41:08.045Z,16.90
2018-09-09T05:43:40.462Z,16.90
2018-09-09T05:46:12.901Z,16.90
2018-09-09T05:48:45.284Z,16.90
2018-09-09T05:51:17.679Z,16.90
2018-09-09T05:53:50.125Z,17.00
2018-09-09T05:56:22.460Z,17.00
2018-09-09T05:58:55.198Z,17.10
2018-09-09T06:01:27.566Z,17.10
2018-09-09T06:04:00.213Z,17.20
2018-09-09T06:06:32.559Z,17.20
2018-09-09T06:09:06.986Z,17.30
2018-09-09T06:11:39.420Z,17.20
2018-09-09T06:14:11.798Z,17.30
2018-09-09T06:16:44.190Z,17.40
2018-09-09T06:19:16.621Z,17.50
2018-09-09T06:21:49.060Z,17.50
2018-09-09T06:24:21.581Z,17.60
2018-09-09T06:26:54.411Z,17.70
2018-09-09T06:29:26.902Z,17.70
2018-09-09T06:31:59.305Z,17.60
2018-09-09T06:34:31.865Z,17.70
2018-09-09T06:37:04.268Z,17.70
2018-09-09T06:39:37.725Z,17.80
2018-09-09T06:42:10.181Z,17.80
2018-09-09T06:44:42.962Z,17.90
2018-09-09T06:47:15.677Z,17.90
2018-09-09T06:49:48.266Z,17.90
2018-09-09T06:52:20.890Z,18.00
2018-09-09T06:54:53.602Z,18.10
2018-09-09T06:57:26.078Z,18.10
2018-09-09T06:59:58.818Z,18.20
2018-09-09T07:02:31.205Z,18.30
2018-09-09T07:05:03.769Z,18.30
2018-09-09T07:07:36.416Z,18.30
2018-09-09T07:10:09.268Z,18.20
2018-09-09T07:12:41.629Z,18.20
2018-09-09T07:17:46.373Z,18.50
2018-09-09T07:20:19.705Z,18.70
2018-09-09T07:22:52.472Z,18.70
2018-09-09T07:25:24.853Z,18.80
2018-09-09T07:27:57.233Z,18.80
2018-09-09T07:30:30.128Z,18.90
2018-09-09T07:33:02.605Z,19.00
2018-09-09T07:38:07.374Z,19.10
2018-09-09T07:40:39.833Z,19.30
2018-09-09T07:43:12.380Z,19.40
2018-09-09T07:48:17.385Z,19.70
2018-09-09T07:50:49.829Z,19.80
2018-09-09T07:53:22.226Z,19.70
2018-09-09T07:55:54.886Z,19.60
2018-09-09T07:58:27.341Z,19.70
2018-09-09T08:00:59.848Z,19.80
2018-09-09T08:03:32.919Z,19.80
2018-09-09T08:06:05.679Z,19.70
2018-09-09T08:08:38.442Z,19.80
2018-09-09T08:11:10.989Z,19.80
2018-09-09T08:13:43.506Z,19.80
2018-09-09T08:16:16.229Z,20.00
2018-09-09T08:18:48.588Z,20.20
2018-09-09T08:21:21.081Z,20.30
2018-09-09T08:23:53.454Z,20.40
2018-09-09T08:26:25.876Z,20.40
2018-09-09T08:28:58.266Z,20.60
2018-09-09T08:31:30.657Z,20.60
2018-09-09T08:34:03.077Z,20.60
2018-09-09T08:36:35.521Z,20.60
2018-09-09T08:39:09.426Z,20.60
2018-09-09T08:44:16.402Z,20.90
2018-09-09T08:46:49.577Z,20.90
2018-09-09T08:49:22.220Z,20.90
2018-09-09T08:51:54.848Z,20.90
2018-09-09T08:54:27.560Z,20.80
2018-09-09T08:57:00.451Z,20.70
2018-09-09T08:59:33.090Z,20.70
2018-09-09T09:02:06.036Z,20.80
2018-09-09T09:04:38.655Z,20.90
2018-09-09T09:07:11.219Z,20.80
2018-09-09T09:09:43.879Z,20.90
2018-09-09T09:12:16.753Z,20.80
2018-09-09T09:14:49.300Z,20.90
2018-09-09T09:17:21.879Z,21.00
2018-09-09T09:19:55.439Z,20.90
2018-09-09T09:22:28.176Z,20.90
2018-09-09T09:25:00.656Z,20.90
2018-09-09T09:27:33.348Z,20.90
2018-09-09T09:30:06.081Z,21.00
2018-09-09T09:32:43.174Z,21.00
2018-09-09T09:35:15.605Z,20.90
2018-09-09T09:37:48.028Z,21.10
2018-09-09T09:43:02.640Z,21.30
2018-09-09T09:45:35.262Z,21.30
2018-09-09T09:48:08.235Z,21.30
2018-09-09T09:50:41.080Z,21.30
2018-09-09T09:53:13.877Z,21.50
2018-09-09T09:55:46.329Z,21.50
2018-09-09T10:00:57.191Z,21.60
2018-09-09T10:03:30.012Z,21.70
2018-09-09T10:06:02.737Z,21.90
2018-09-09T10:08:35.372Z,22.00
2018-09-09T10:11:08.001Z,22.10
2018-09-09T10:13:40.895Z,22.10
2018-09-09T10:16:13.457Z,22.20
2018-09-09T10:18:46.375Z,22.30
2018-09-09T10:21:19.181Z,22.30
2018-09-09T10:23:52.031Z,22.30
2018-09-09T10:26:24.750Z,22.30
2018-09-09T10:28:57.492Z,22.20
2018-09-09T10:31:29.997Z,22.20
2018-09-09T10:34:02.928Z,22.30
2018-09-09T10:36:35.549Z,22.50
2018-09-09T10:41:40.918Z,22.80
2018-09-09T10:44:13.562Z,23.00
2018-09-09T10:49:18.734Z,23.00
2018-09-09T10:51:51.270Z,23.10
2018-09-09T10:54:23.826Z,23.10
2018-09-09T10:56:56.508Z,23.20
2018-09-09T10:59:29.226Z,23.20
2018-09-09T11:02:01.930Z,23.30
2018-09-09T11:04:34.454Z,23.30
2018-09-09T11:07:08.007Z,23.40
2018-09-09T11:09:40.612Z,23.60
2018-09-09T11:12:13.328Z,23.70
2018-09-09T11:14:46.573Z,23.70
2018-09-09T11:17:19.126Z,23.60
2018-09-09T11:19:51.835Z,23.50
2018-09-09T11:22:24.914Z,23.60
2018-09-09T11:24:57.722Z,23.70
2018-09-09T11:27:30.430Z,23.60
2018-09-09T11:30:03.349Z,23.60
2018-09-09T11:32:35.820Z,23.80
2018-09-09T11:35:08.481Z,24.00
2018-09-09T11:37:41.285Z,24.10
2018-09-09T11:40:13.719Z,24.10
2018-09-09T11:42:46.163Z,24.10
2018-09-09T11:45:18.822Z,24.20
2018-09-09T11:47:51.653Z,24.30
2018-09-09T11:50:24.587Z,24.30
2018-09-09T11:52:57.915Z,24.20
2018-09-09T11:55:30.386Z,24.30
2018-09-09T11:58:02.773Z,24.20
2018-09-09T12:00:35.184Z,24.10
2018-09-09T12:03:07.571Z,24.20
2018-09-09T12:05:40.230Z,24.40
2018-09-09T12:10:45.394Z,24.20
2018-09-09T12:13:18.183Z,24.40
2018-09-09T12:15:50.957Z,24.50
2018-09-09T12:18:23.541Z,24.70
2018-09-09T12:20:56.120Z,24.50
2018-09-09T12:23:28.919Z,24.50
2018-09-09T12:26:01.756Z,24.40
2018-09-09T12:28:34.608Z,24.50
2018-09-09T12:31:07.158Z,24.50
2018-09-09T12:33:40.077Z,24.50
2018-09-09T12:36:12.635Z,24.60
2018-09-09T12:38:45.869Z,24.60
2018-09-09T12:41:19.812Z,24.70
2018-09-09T12:43:58.555Z,24.80
2018-09-09T12:46:38.841Z,24.80
2018-09-09T12:49:11.632Z,24.80
2018-09-09T12:51:44.814Z,24.60
2018-09-09T12:54:17.800Z,24.50
2018-09-09T12:56:50.409Z,24.50
2018-09-09T12:59:23.126Z,24.60
2018-09-09T13:01:56.008Z,24.70
2018-09-09T13:04:28.573Z,24.60
2018-09-09T13:07:01.507Z,24.80
2018-09-09T13:09:34.079Z,24.80
2018-09-09T13:12:07.893Z,24.80
2018-09-09T13:14:40.372Z,24.70
2018-09-09T13:17:13.474Z,24.70
2018-09-09T13:19:46.800Z,24.70
2018-09-09T13:22:19.562Z,24.80
2018-09-09T13:24:52.527Z,24.90
2018-09-09T13:27:25.232Z,24.40
2018-09-09T13:29:57.913Z,24.30
2018-09-09T13:32:31.416Z,24.30
2018-09-09T13:35:05.318Z,24.30
2018-09-09T13:37:38.840Z,24.30
2018-09-09T13:40:12.408Z,24.50
2018-09-09T13:42:45.374Z,24.70
2018-09-09T13:45:18.150Z,24.60
2018-09-09T13:47:52.506Z,24.60
2018-09-09T13:50:25.268Z,24.70
2018-09-09T13:52:59.121Z,24.70
2018-09-09T13:55:32.238Z,24.90
2018-09-09T13:58:05.190Z,25.00
2018-09-09T14:00:38.357Z,24.90
2018-09-09T14:03:11.215Z,24.70
2018-09-09T14:05:44.506Z,24.90
2018-09-09T14:08:17.803Z,25.10
2018-09-09T14:10:51.391Z,25.00
2018-09-09T14:13:24.383Z,25.10
2018-09-09T14:15:57.393Z,25.00
2018-09-09T14:18:30.275Z,25.00
2018-09-09T14:21:02.852Z,25.00
2018-09-09T14:23:35.525Z,24.80
2018-09-09T14:26:09.639Z,24.60
2018-09-09T14:28:44.032Z,24.70
2018-09-09T14:31:16.592Z,24.60
2018-09-09T14:33:49.363Z,24.60
2018-09-09T14:36:22.106Z,24.50
2018-09-09T14:38:55.799Z,24.50
2018-09-09T14:41:28.980Z,24.40
2018-09-09T14:44:01.713Z,24.50
2018-09-09T14:46:34.367Z,24.70
2018-09-09T14:49:07.230Z,24.70
2018-09-09T14:51:41.543Z,24.70
2018-09-09T14:54:15.763Z,24.80
2018-09-09T14:56:49.065Z,24.80
2018-09-09T14:59:22.048Z,24.80
2018-09-09T15:01:56.177Z,24.80
2018-09-09T15:04:29.057Z,24.70
2018-09-09T15:07:01.898Z,24.60
2018-09-09T15:09:35.055Z,24.50
2018-09-09T15:12:07.712Z,24.40
2018-09-09T15:14:40.536Z,24.40
2018-09-09T15:17:13.659Z,24.30
2018-09-09T15:19:46.600Z,24.30
2018-09-09T15:22:20.817Z,24.40
2018-09-09T15:24:54.029Z,24.40
2018-09-09T15:27:26.709Z,24.30
2018-09-09T15:29:59.472Z,24.30
2018-09-09T15:32:32.188Z,24.20
2018-09-09T15:35:05.812Z,24.20
2018-09-09T15:37:38.573Z,24.20
2018-09-09T15:40:12.453Z,24.20
2018-09-09T15:42:47.329Z,24.20
2018-09-09T15:45:20.028Z,24.20
2018-09-09T15:47:52.803Z,24.10
2018-09-09T15:50:26.261Z,24.10
2018-09-09T15:52:58.894Z,24.10
2018-09-09T15:55:32.866Z,24.10
2018-09-09T15:58:06.550Z,24.20
2018-09-09T16:00:39.457Z,24.20
2018-09-09T16:03:15.120Z,24.20
2018-09-09T16:05:48.022Z,24.00
2018-09-09T16:08:21.224Z,24.10
2018-09-09T16:10:54.747Z,24.10
2018-09-09T16:13:27.523Z,24.10
2018-09-09T16:16:00.154Z,24.00
2018-09-09T16:18:33.049Z,24.00
2018-09-09T16:21:06.137Z,24.10
2018-09-09T16:23:39.776Z,24.10
2018-09-09T16:26:13.437Z,23.90
2018-09-09T16:28:46.440Z,23.80
2018-09-09T16:31:19.921Z,23.80
2018-09-09T16:33:53.036Z,23.70
2018-09-09T16:36:26.420Z,23.70
2018-09-09T16:39:00.182Z,23.80
2018-09-09T16:41:32.803Z,23.80
2018-09-09T16:44:08.043Z,23.80
2018-09-09T16:46:42.299Z,23.60
2018-09-09T16:49:15.049Z,23.60
2018-09-09T16:51:49.784Z,23.60
2018-09-09T16:54:25.833Z,23.60
2018-09-09T16:56:59.919Z,23.50
2018-09-09T16:59:33.670Z,23.40
2018-09-09T17:02:08.914Z,23.40
2018-09-09T17:04:41.820Z,23.30
2018-09-09T17:07:14.757Z,23.20
2018-09-09T17:09:48.454Z,23.20
2018-09-09T17:12:21.287Z,23.10
2018-09-09T17:14:55.054Z,23.10
2018-09-09T17:17:27.816Z,23.00
2018-09-09T17:20:02.321Z,22.90
2018-09-09T17:22:35.104Z,22.90
2018-09-09T17:27:40.417Z,22.60
2018-09-09T17:30:13.231Z,22.60
2018-09-09T17:32:46.582Z,22.40
2018-09-09T17:35:19.022Z,22.30
2018-09-09T17:37:51.776Z,22.20
2018-09-09T17:40:24.569Z,22.10
2018-09-09T17:42:58.289Z,22.10
2018-09-09T17:48:04.368Z,21.80
2018-09-09T17:50:39.000Z,21.70
2018-09-09T17:53:13.505Z,21.60
2018-09-09T17:58:21.720Z,21.40
2018-09-09T18:00:54.522Z,21.40
2018-09-09T18:03:34.749Z,21.30
2018-09-09T18:06:10.320Z,21.10
2018-09-09T18:08:43.381Z,21.00
2018-09-09T18:13:49.525Z,20.90
2018-09-09T18:16:22.197Z,20.80
2018-09-09T18:18:56.135Z,20.80
2018-09-09T18:21:29.781Z,20.70
2018-09-09T18:24:03.023Z,20.60
2018-09-09T18:29:08.797Z,20.50
2018-09-09T18:31:41.862Z,20.50
2018-09-09T18:36:50.731Z,20.40
2018-09-09T18:39:24.146Z,20.30
2018-09-09T18:41:56.830Z,20.30
2018-09-09T18:44:29.504Z,20.30
2018-09-09T18:47:02.219Z,20.20
2018-09-09T18:49:37.725Z,20.10
2018-09-09T18:54:44.358Z,20.10
2018-09-09T18:57:18.212Z,20.10
2018-09-09T18:59:50.975Z,20.00
2018-09-09T19:04:56.665Z,19.90
2018-09-09T19:10:02.877Z,19.80
2018-09-09T19:12:35.702Z,19.80
2018-09-09T19:15:08.707Z,19.80
2018-09-09T19:17:42.297Z,19.80
2018-09-09T19:20:15.055Z,19.80
2018-09-09T19:22:50.337Z,19.80
2018-09-09T19:25:33.132Z,19.60
2018-09-09T19:33:22.164Z,19.50
2018-09-09T19:35:57.575Z,19.50
2018-09-09T19:38:31.038Z,19.40
2018-09-09T19:41:04.542Z,19.40
2018-09-09T19:43:37.834Z,19.40
2018-09-09T19:46:10.920Z,19.30
2018-09-09T19:48:43.596Z,19.30
2018-09-09T19:51:17.380Z,19.30
2018-09-09T19:53:50.177Z,19.20
2018-09-09T19:58:57.536Z,19.10
2018-09-09T20:01:30.299Z,19.10
2018-09-09T20:04:03.101Z,19.10
2018-09-09T20:06:36.664Z,19.00
2018-09-09T20:09:09.481Z,19.00
2018-09-09T20:11:41.906Z,19.00
2018-09-09T20:14:14.673Z,19.10
2018-09-09T20:16:47.823Z,19.00
2018-09-09T20:19:22.339Z,18.90
2018-09-09T20:21:58.282Z,18.90
2018-09-09T20:24:32.767Z,18.90
2018-09-09T20:27:05.716Z,18.90
2018-09-09T20:29:39.316Z,18.90
2018-09-09T20:32:13.090Z,18.90
2018-09-09T20:34:45.943Z,18.90
2018-09-09T20:37:21.184Z,18.90
2018-09-09T20:39:56.228Z,18.80
2018-09-09T20:42:29.003Z,18.80
2018-09-09T20:45:02.931Z,18.80
2018-09-09T20:47:35.702Z,18.80
2018-09-09T20:50:08.891Z,18.80
2018-09-09T20:52:43.469Z,18.70
2018-09-09T20:55:17.419Z,18.70
2018-09-09T20:57:49.948Z,18.70
2018-09-09T21:00:23.710Z,18.70
2018-09-09T21:02:58.055Z,18.70
2018-09-09T21:10:38.479Z,18.50
2018-09-09T21:13:12.218Z,18.50
2018-09-09T21:15:47.771Z,18.40
2018-09-09T21:18:21.838Z,18.40
2018-09-09T21:20:54.981Z,18.40
2018-09-09T21:23:29.303Z,18.30
2018-09-09T21:26:02.498Z,18.30
2018-09-09T21:28:36.838Z,18.30
2018-09-09T21:31:11.490Z,18.30
2018-09-09T21:33:44.340Z,18.20
2018-09-09T21:36:18.014Z,18.20
2018-09-09T21:38:50.588Z,18.20
2018-09-09T21:41:23.204Z,18.10
2018-09-09T21:43:56.123Z,18.10
2018-09-09T21:49:01.410Z,18.10
2018-09-09T21:51:33.886Z,18.00
2018-09-09T21:54:06.557Z,18.00
2018-09-09T21:56:41.874Z,18.00
2018-09-09T21:59:14.438Z,17.90
2018-09-09T22:01:52.796Z,18.00
2018-09-09T22:04:25.489Z,17.90
2018-09-09T22:06:58.041Z,17.90
2018-09-09T22:09:30.753Z,17.80
2018-09-09T22:12:03.302Z,17.80
2018-09-09T22:14:35.875Z,17.80
2018-09-09T22:17:09.415Z,17.70
2018-09-09T22:19:42.226Z,17.70
2018-09-09T22:22:14.837Z,17.70
2018-09-09T22:24:47.294Z,17.70
2018-09-09T22:27:19.714Z,17.70
2018-09-09T22:29:52.389Z,17.60
2018-09-09T22:32:25.858Z,17.60
2018-09-09T22:34:58.510Z,17.60
2018-09-09T22:37:30.967Z,17.60
2018-09-09T22:40:04.519Z,17.60
2018-09-09T22:42:37.053Z,17.60
2018-09-09T22:45:12.361Z,17.50
2018-09-09T22:47:49.180Z,17.50
2018-09-09T22:50:23.359Z,17.40
2018-09-09T22:52:55.833Z,17.40
2018-09-09T22:55:29.249Z,17.40
2018-09-09T22:58:01.748Z,17.40
2018-09-09T23:00:34.413Z,17.40
2018-09-09T23:03:07.673Z,17.30
2018-09-09T23:05:40.871Z,17.30
2018-09-09T23:08:14.020Z,17.20
2018-09-09T23:10:46.939Z,17.20
2018-09-09T23:13:19.851Z,17.20
2018-09-09T23:15:54.037Z,17.20
2018-09-09T23:18:28.050Z,17.30
2018-09-09T23:21:01.624Z,17.20
2018-09-09T23:23:34.193Z,17.10
2018-09-09T23:26:06.941Z,17.10
2018-09-09T23:28:39.534Z,17.10
2018-09-09T23:31:14.098Z,17.10
2018-09-09T23:33:46.898Z,17.10
2018-09-09T23:36:19.521Z,17.10
2018-09-09T23:38:52.865Z,17.10
2018-09-09T23:41:25.684Z,17.10
2018-09-09T23:43:59.493Z,17.00
2018-09-09T23:46:32.071Z,16.90
2018-09-09T23:49:05.526Z,16.90
2018-09-09T23:51:38.513Z,16.90
2018-09-09T23:54:11.439Z,16.90
2018-09-09T23:56:46.603Z,16.90
2018-09-09T23:59:19.637Z,16.80
